Thursday, November 23, 2017, 4:34 AM EST
Back to Local

KEWR, Newark International Airport

Location: Elizabeth, NJ, United States Lat: 40.683
Local Time: 4:34 AM EST ( 9:34 GMT) Lon: -74.167
Time Zone: US/Eastern Elev: 16 ft

Show me the last for .
Show Decoded

2017-11-23 03:51 METAR KEWR 230851Z 33009KT 10SM CLR 01/M07 A3009 RMK AO2 SLP189 T00061072 58002
                 =
2017-11-23 02:51 METAR KEWR 230751Z 32012KT 10SM CLR 01/M07 A3011 RMK AO2 SLP193 T00061072 =
2017-11-23 01:51 METAR KEWR 230651Z 29009KT 10SM CLR 01/M07 A3011 RMK AO2 SLP196 T00061072 =
2017-11-23 00:51 METAR KEWR 230551Z 30010KT 10SM CLR 01/M07 A3010 RMK AO2 SLP191 T00111067 10056
                 20011 50003 =
2017-11-22 23:51 METAR KEWR 230451Z 30010KT 10SM FEW040 02/M07 A3011 RMK AO2 SLP194 T00171067
                 401280017 =
2017-11-22 22:51 METAR KEWR 230351Z 33014G22KT 10SM FEW040 02/M07 A3010 RMK AO2 SLP191 T00221067
                 =
2017-11-22 21:51 METAR KEWR 230251Z 32018G22KT 10SM FEW038 03/M06 A3009 RMK AO2 PK WND 33026/0207
                 SLP189 T00281061 51017 =
2017-11-22 20:51 METAR KEWR 230151Z 32020G27KT 10SM SCT038 03/M06 A3008 RMK AO2 PK WND 32027/0143
                 SLP185 T00331056 =
2017-11-22 19:51 METAR KEWR 230051Z 33019G25KT 10SM BKN042 04/M05 A3007 RMK AO2 PK WND 35028/2352
                 SLP181 T00441050 =
2017-11-22 18:51 METAR KEWR 222351Z 34021G29KT 10SM BKN042 06/M04 A3004 RMK AO2 PK WND 32029/2344
                 SLP171 T00561039 10122 20056 51025 =
2017-11-22 17:51 METAR KEWR 222251Z 30017G24KT 10SM BKN042 06/M04 A3002 RMK AO2 PK WND 31029/2220
                 SLP164 T00611044 =
2017-11-22 16:51 METAR KEWR 222151Z 32017KT 10SM BKN041 07/M03 A3000 RMK AO2 PK WND 31030/2054
                 SLP157 T00721028 =
2017-11-22 15:51 METAR KEWR 222051Z 31019G28KT 10SM SCT035 08/M01 A2997 RMK AO2 PK WND 31029/2018
                 SLP146 T00781011 53028 =
2017-11-22 14:51 METAR KEWR 221951Z 29019G23KT 10SM SCT038 10/01 A2993 RMK AO2 PK WND 31028/1926
                 SLP133 T01000006 =
2017-11-22 13:51 METAR KEWR 221851Z 32017G21KT 10SM FEW035 11/03 A2991 RMK AO2 PK WND 31027/1836
                 SLP126 T01110028 =
2017-11-22 12:51 METAR KEWR 221751Z 32014G22KT 10SM SCT035 BKN080 BKN120 BKN200 12/05 A2988 RMK
                 AO2 RAE1655 SLP119 P0000 60009 T01170050 10128 20094 50003 =
2017-11-22 11:51 METAR KEWR 221651Z 30006KT 10SM -RA FEW050 BKN065 OVC085 11/09 A2989 RMK AO2
                 RAB12E28B46 SLP120 P0000 T01110089 =
2017-11-22 10:51 METAR KEWR 221551Z 25007KT 10SM FEW010 BKN065 OVC080 10/08 A2990 RMK AO2 SLP126
                 T01000083 =
2017-11-22 09:51 METAR KEWR 221451Z 03004KT 10SM FEW009 BKN048 OVC080 11/08 A2988 RMK AO2 RAE04
                 PRESFR SLP116 P0000 60009 T01060083 56012 $ =
2017-11-22 09:48 METAR KEWR 221448Z 04005KT 10SM FEW009 BKN048 OVC080 11/08 A2988 RMK AO2 RAE04
                 PRESFR P0000 $ =
2017-11-22 08:51 METAR KEWR 221351Z 33005KT 7SM -RA FEW015 SCT040 OVC070 10/08 A2990 RMK AO2
                 SLP125 P0004 T01000083 $ =
2017-11-22 08:18 METAR KEWR 221318Z 28005KT 7SM -RA SCT016 OVC060 10/08 A2992 RMK AO2 P0000
                 T01000078 $ =
2017-11-22 07:51 METAR KEWR 221251Z 26005KT 7SM -RA BKN016 OVC060 11/09 A2991 RMK AO2 SLP128
                 P0005 T01060089 $ =
2017-11-22 06:51 METAR KEWR 221151Z 00000KT 8SM -RA BKN016 OVC032 11/07 A2991 RMK AO2 RAB26
                 SLP127 P0003 60003 70003 T01060072 10111 20072 55014 $ =
2017-11-22 05:51 METAR KEWR 221051Z 36004KT 10SM BKN022 OVC040 09/06 A2990 RMK AO2 RAE0957 SLP125
                 P0000 T00940056 $ =
2017-11-22 05:34 METAR KEWR 221034Z 02003KT 10SM BKN022 BKN040 OVC090 10/06 A2991 RMK AO2 RAE0957
                 P0000 T01000061 $ =
2017-11-22 04:51 METAR KEWR 220951Z 00000KT 10SM -RA SCT040 BKN090 OVC140 10/06 A2993 RMK AO2
                 RAB49 SLP133 P0000 T01000056 $ =

Support USWX by starting your Amazon purchase here.